createdAt,value
2023-04-02T00:01:01.982Z,98558.22
2023-04-02T00:03:42.295Z,98557.13
2023-04-02T00:06:32.884Z,98562.03
2023-04-02T00:09:24.009Z,98563.97
2023-04-02T00:11:55.670Z,98565.41
2023-04-02T00:14:36.243Z,98566.00
2023-04-02T00:17:05.608Z,98569.81
2023-04-02T00:19:37.216Z,98566.78
2023-04-02T00:22:07.828Z,98567.88
2023-04-02T00:24:34.637Z,98555.84
2023-04-02T00:27:01.371Z,98570.91
2023-04-02T00:29:28.089Z,98570.47
2023-04-02T00:31:55.221Z,98584.69
2023-04-02T00:34:32.079Z,98575.63
2023-04-02T00:36:59.292Z,98579.34
2023-04-02T00:39:28.794Z,98581.19
2023-04-02T00:42:06.574Z,98575.63
2023-04-02T00:44:38.701Z,98568.28
2023-04-02T00:47:18.988Z,98571.34
2023-04-02T00:49:46.435Z,98571.91
2023-04-02T00:52:18.838Z,98575.41
2023-04-02T00:54:49.862Z,98571.63
2023-04-02T00:57:23.288Z,98575.84
2023-04-02T01:00:00.848Z,98573.31
2023-04-02T01:02:31.680Z,98576.78
2023-04-02T01:05:05.604Z,98572.72
2023-04-02T01:08:01.001Z,98568.91
2023-04-02T01:10:50.651Z,98575.09
2023-04-02T01:13:37.089Z,98565.63
2023-04-02T01:16:11.977Z,98577.56
2023-04-02T01:19:03.963Z,98580.09
2023-04-02T01:21:37.166Z,98586.88
2023-04-02T01:24:06.413Z,98586.09
2023-04-02T01:26:52.725Z,98583.81
2023-04-02T01:29:33.924Z,98588.97
2023-04-02T01:32:04.645Z,98593.34
2023-04-02T01:34:32.204Z,98587.91
2023-04-02T01:37:05.171Z,98594.25
2023-04-02T01:40:00.702Z,98596.00
2023-04-02T01:42:36.613Z,98590.34
2023-04-02T01:45:11.058Z,98592.97
2023-04-02T01:47:38.698Z,98594.06
2023-04-02T01:50:19.409Z,98591.44
2023-04-02T01:52:51.156Z,98603.78
2023-04-02T01:55:22.174Z,98599.72
2023-04-02T01:57:51.276Z,98600.50
2023-04-02T02:00:19.078Z,98606.94
2023-04-02T02:02:49.960Z,98600.34
2023-04-02T02:05:19.402Z,98602.97
2023-04-02T02:07:46.545Z,98607.53
2023-04-02T02:10:16.051Z,98613.25
2023-04-02T02:12:48.005Z,98609.19
2023-04-02T02:15:20.713Z,98601.63
2023-04-02T02:17:47.794Z,98608.56
2023-04-02T02:20:15.072Z,98615.34
2023-04-02T02:22:49.859Z,98614.25
2023-04-02T02:25:21.173Z,98610.97
2023-04-02T02:27:56.908Z,98601.31
2023-04-02T02:30:33.534Z,98608.09
2023-04-02T02:33:03.339Z,98610.28
2023-04-02T02:35:41.483Z,98607.25
2023-04-02T02:38:14.160Z,98614.66
2023-04-02T02:40:43.936Z,98607.94
2023-04-02T02:43:13.169Z,98612.41
2023-04-02T02:45:42.022Z,98615.34
2023-04-02T02:48:14.224Z,98615.34
2023-04-02T02:50:41.750Z,98609.63
2023-04-02T02:53:21.783Z,98611.25
2023-04-02T02:55:52.756Z,98614.13
2023-04-02T02:58:23.714Z,98613.34
2023-04-02T03:00:50.635Z,98610.22
2023-04-02T03:03:27.474Z,98612.41
2023-04-02T03:05:57.704Z,98613.09
2023-04-02T03:08:30.676Z,98610.72
2023-04-02T03:11:17.702Z,98607.31
2023-04-02T03:13:47.340Z,98609.84
2023-04-02T03:16:33.462Z,98615.78
2023-04-02T03:19:15.387Z,98614.47
2023-04-02T03:21:48.797Z,98620.16
2023-04-02T03:24:49.708Z,98617.09
2023-04-02T03:27:22.346Z,98615.13
2023-04-02T03:30:28.081Z,98613.97
2023-04-02T03:33:02.649Z,98615.38
2023-04-02T03:35:36.342Z,98618.00
2023-04-02T03:38:23.232Z,98611.25
2023-04-02T03:40:59.716Z,98616.50
2023-04-02T03:43:30.248Z,98611.66
2023-04-02T03:46:39.639Z,98603.47
2023-04-02T03:49:29.619Z,98615.59
2023-04-02T03:52:04.609Z,98614.47
2023-04-02T03:54:31.467Z,98611.75
2023-04-02T03:56:58.775Z,98611.66
2023-04-02T03:59:31.974Z,98617.66
2023-04-02T04:02:06.423Z,98615.38
2023-04-02T04:04:34.357Z,98616.91
2023-04-02T04:07:01.890Z,98624.75
2023-04-02T04:09:38.686Z,98626.28
2023-04-02T04:12:31.580Z,98627.38
2023-04-02T04:15:13.452Z,98636.34
2023-04-02T04:17:51.329Z,98641.47
2023-04-02T04:20:24.842Z,98635.47
2023-04-02T04:22:56.021Z,98635.72
2023-04-02T04:25:34.066Z,98640.63
2023-04-02T04:28:10.589Z,98646.53
2023-04-02T04:30:50.868Z,98650.91
2023-04-02T04:33:26.596Z,98653.84
2023-04-02T04:35:56.287Z,98656.91
2023-04-02T04:38:44.200Z,98662.91
2023-04-02T04:41:17.666Z,98665.53
2023-04-02T04:44:17.274Z,98663.00
2023-04-02T04:47:03.840Z,98655.66
2023-04-02T04:49:36.407Z,98661.88
2023-04-02T04:52:06.230Z,98658.34
2023-04-02T04:54:37.728Z,98664.56
2023-04-02T04:57:06.026Z,98665.06
2023-04-02T04:59:42.540Z,98667.22
2023-04-02T05:02:21.037Z,98671.13
2023-04-02T05:04:52.264Z,98667.38
2023-04-02T05:07:28.910Z,98673.97
2023-04-02T05:09:58.803Z,98680.59
2023-04-02T05:12:45.579Z,98667.75
2023-04-02T05:15:36.754Z,98675.63
2023-04-02T05:18:25.471Z,98675.97
2023-04-02T05:21:00.300Z,98670.22
2023-04-02T05:23:35.174Z,98681.03
2023-04-02T05:26:22.035Z,98687.47
2023-04-02T05:28:48.670Z,98688.78
2023-04-02T05:31:20.501Z,98682.66
2023-04-02T05:33:48.634Z,98688.63
2023-04-02T05:36:21.705Z,98699.84
2023-04-02T05:38:49.325Z,98699.00
2023-04-02T05:41:32.482Z,98694.81
2023-04-02T05:44:10.809Z,98694.38
2023-04-02T05:46:50.674Z,98692.66
2023-04-02T05:49:23.537Z,98699.69
2023-04-02T05:51:52.807Z,98705.19
2023-04-02T05:54:23.395Z,98707.34
2023-04-02T05:56:54.626Z,98710.97
2023-04-02T05:59:30.985Z,98717.09
2023-04-02T06:02:03.839Z,98717.19
2023-04-02T06:04:43.759Z,98709.72
2023-04-02T06:07:15.849Z,98715.22
2023-04-02T06:09:55.365Z,98719.31
2023-04-02T06:12:44.407Z,98717.25
2023-04-02T06:15:15.810Z,98717.34
2023-04-02T06:17:48.017Z,98721.84
2023-04-02T06:20:17.270Z,98727.78
2023-04-02T06:22:44.974Z,98734.00
2023-04-02T06:25:18.179Z,98737.78
2023-04-02T06:27:45.539Z,98737.78
2023-04-02T06:30:33.529Z,98742.91
2023-04-02T06:33:00.381Z,98743.41
2023-04-02T06:35:27.795Z,98746.41
2023-04-02T06:37:57.419Z,98748.59
2023-04-02T06:40:50.797Z,98748.28
2023-04-02T06:43:26.345Z,98752.94
2023-04-02T06:45:55.564Z,98758.38
2023-04-02T06:48:23.297Z,98755.16
2023-04-02T06:51:07.246Z,98753.25
2023-04-02T06:53:39.952Z,98758.94
2023-04-02T06:56:31.753Z,98760.19
2023-04-02T06:58:59.120Z,98757.59
2023-04-02T07:01:29.146Z,98761.47
2023-04-02T07:03:56.642Z,98758.84
2023-04-02T07:06:23.454Z,98761.06
2023-04-02T07:08:50.254Z,98753.13
2023-04-02T07:11:21.010Z,98763.03
2023-04-02T07:13:49.317Z,98763.03
2023-04-02T07:16:18.485Z,98758.09
2023-04-02T07:18:45.808Z,98760.38
2023-04-02T07:21:12.602Z,98763.78
2023-04-02T07:23:39.691Z,98763.81
2023-04-02T07:26:07.859Z,98763.50
2023-04-02T07:28:34.814Z,98767.72
2023-04-02T07:31:01.848Z,98762.44
2023-04-02T07:33:29.977Z,98778.34
2023-04-02T07:35:58.080Z,98772.28
2023-04-02T07:38:25.124Z,98777.59
2023-04-02T07:40:51.897Z,98781.41
2023-04-02T07:43:18.607Z,98779.88
2023-04-02T07:45:45.376Z,98782.06
2023-04-02T07:48:13.687Z,98794.19
2023-04-02T07:50:40.758Z,98796.44
2023-04-02T07:53:08.822Z,98795.75
2023-04-02T07:55:35.806Z,98797.34
2023-04-02T07:58:03.113Z,98801.94
2023-04-02T08:00:30.047Z,98801.25
2023-04-02T08:02:56.937Z,98795.63
2023-04-02T08:05:23.885Z,98796.00
2023-04-02T08:07:55.554Z,98797.53
2023-04-02T08:10:22.941Z,98794.88
2023-04-02T08:12:50.173Z,98799.44
2023-04-02T08:15:17.429Z,98802.84
2023-04-02T08:17:46.382Z,98802.84
2023-04-02T08:20:18.191Z,98805.13
2023-04-02T08:22:48.150Z,98803.25
2023-04-02T08:25:15.470Z,98802.06
2023-04-02T08:27:42.293Z,98810.34
2023-04-02T08:30:11.709Z,98816.41
2023-04-02T08:32:41.040Z,98817.84
2023-04-02T08:35:10.037Z,98826.19
2023-04-02T08:37:37.208Z,98828.38
2023-04-02T08:40:05.229Z,98827.59
2023-04-02T08:43:15.353Z,98826.72
2023-04-02T08:45:55.155Z,98832.00
2023-04-02T08:48:23.420Z,98830.47
2023-04-02T08:50:50.771Z,98834.34
2023-04-02T08:53:27.692Z,98836.28
2023-04-02T08:56:05.378Z,98843.59
2023-04-02T08:59:01.156Z,98835.25
2023-04-02T09:01:34.980Z,98844.75
2023-04-02T09:04:06.706Z,98849.75
2023-04-02T09:06:34.671Z,98849.44
2023-04-02T09:09:01.478Z,98848.28
2023-04-02T09:11:36.483Z,98846.00
2023-04-02T09:14:08.261Z,98851.34
2023-04-02T09:16:41.833Z,98850.59
2023-04-02T09:19:21.854Z,98856.66
2023-04-02T09:22:21.264Z,98859.63
2023-04-02T09:24:52.485Z,98863.44
2023-04-02T09:27:21.658Z,98859.63
2023-04-02T09:29:51.091Z,98873.97
2023-04-02T09:32:48.428Z,98861.69
2023-04-02T09:35:25.353Z,98867.16
2023-04-02T09:38:28.106Z,98874.69
2023-04-02T09:40:54.811Z,98876.47
2023-04-02T09:43:26.386Z,98880.94
2023-04-02T09:46:12.350Z,98878.63
2023-04-02T09:49:01.121Z,98890.03
2023-04-02T09:51:38.275Z,98878.75
2023-04-02T09:54:04.888Z,98888.84
2023-04-02T09:56:33.443Z,98889.75
2023-04-02T09:59:22.955Z,98889.78
2023-04-02T10:01:55.817Z,98888.25
2023-04-02T10:04:44.013Z,98898.31
2023-04-02T10:07:36.920Z,98895.13
2023-04-02T10:10:25.244Z,98896.78
2023-04-02T10:13:18.940Z,98899.41
2023-04-02T10:15:48.330Z,98901.41
2023-04-02T10:18:22.703Z,98901.41
2023-04-02T10:20:51.856Z,98897.94
2023-04-02T10:23:19.756Z,98905.69
2023-04-02T10:25:53.984Z,98896.13
2023-04-02T10:28:42.720Z,98886.28
2023-04-02T10:31:17.402Z,98887.66
2023-04-02T10:33:48.594Z,98883.34
2023-04-02T10:36:22.614Z,98884.53
2023-04-02T10:38:52.605Z,98881.41
2023-04-02T10:41:25.477Z,98891.56
2023-04-02T10:44:20.870Z,98884.66
2023-04-02T10:46:59.953Z,98880.13
2023-04-02T10:49:36.505Z,98888.97
2023-04-02T10:52:27.082Z,98889.72
2023-04-02T10:54:55.410Z,98887.81
2023-04-02T10:57:34.363Z,98886.75
2023-04-02T11:00:15.943Z,98889.25
2023-04-02T11:03:01.735Z,98878.97
2023-04-02T11:05:44.429Z,98886.16
2023-04-02T11:08:23.645Z,98886.91
2023-04-02T11:11:19.421Z,98895.66
2023-04-02T11:13:46.273Z,98890.28
2023-04-02T11:16:16.552Z,98888.78
2023-04-02T11:18:44.921Z,98893.81
2023-04-02T11:21:30.380Z,98886.00
2023-04-02T11:23:59.036Z,98878.66
2023-04-02T11:26:41.731Z,98886.38
2023-04-02T11:29:29.629Z,98880.25
2023-04-02T11:32:25.299Z,98879.00
2023-04-02T11:35:05.882Z,98878.69
2023-04-02T11:37:41.039Z,98884.50
2023-04-02T11:40:10.759Z,98883.97
2023-04-02T11:42:38.341Z,98884.88
2023-04-02T11:45:21.092Z,98881.47
2023-04-02T11:48:00.210Z,98879.97
2023-04-02T11:50:34.166Z,98879.44
2023-04-02T11:53:06.842Z,98882.50
2023-04-02T11:55:35.042Z,98880.38
2023-04-02T11:58:25.929Z,98885.38
2023-04-02T12:01:30.094Z,98880.94
2023-04-02T12:04:09.054Z,98880.69
2023-04-02T12:07:11.228Z,98872.56
2023-04-02T12:09:49.668Z,98882.97
2023-04-02T12:12:31.654Z,98871.34
2023-04-02T12:14:59.629Z,98875.41
2023-04-02T12:17:35.475Z,98876.19
2023-04-02T12:20:09.638Z,98871.19
2023-04-02T12:22:40.835Z,98872.53
2023-04-02T12:25:24.672Z,98866.47
2023-04-02T12:28:17.900Z,98863.69
2023-04-02T12:30:45.985Z,98873.97
2023-04-02T12:33:30.690Z,98860.19
2023-04-02T12:36:02.474Z,98852.22
2023-04-02T12:38:33.431Z,98852.94
2023-04-02T12:41:03.516Z,98854.69
2023-04-02T12:43:35.334Z,98846.97
2023-04-02T12:46:07.042Z,98849.66
2023-04-02T12:48:34.955Z,98846.50
2023-04-02T12:51:02.568Z,98842.97
2023-04-02T12:53:34.608Z,98834.31
2023-04-02T12:56:01.515Z,98845.59
2023-04-02T12:58:29.964Z,98837.69
2023-04-02T13:01:09.780Z,98849.94
2023-04-02T13:03:36.596Z,98833.88
2023-04-02T13:06:03.746Z,98840.25
2023-04-02T13:08:33.219Z,98838.22
2023-04-02T13:11:02.056Z,98838.34
2023-04-02T13:13:39.849Z,98846.03
2023-04-02T13:16:12.738Z,98841.53
2023-04-02T13:18:40.171Z,98850.13
2023-04-02T13:21:19.543Z,98838.56
2023-04-02T13:23:46.659Z,98835.47
2023-04-02T13:26:17.485Z,98840.13
2023-04-02T13:28:56.574Z,98847.28
2023-04-02T13:31:23.427Z,98845.81
2023-04-02T13:33:50.183Z,98845.66
2023-04-02T13:36:16.910Z,98853.47
2023-04-02T13:38:43.729Z,98845.13
2023-04-02T13:41:19.327Z,98851.28
2023-04-02T13:43:46.015Z,98850.13
2023-04-02T13:46:19.591Z,98848.84
2023-04-02T13:48:46.332Z,98843.97
2023-04-02T13:51:18.464Z,98835.72
2023-04-02T13:53:51.546Z,98844.41
2023-04-02T13:56:19.467Z,98830.63
2023-04-02T13:58:46.573Z,98828.59
2023-04-02T14:01:14.395Z,98825.13
2023-04-02T14:03:41.492Z,98831.78
2023-04-02T14:06:13.733Z,98828.69
2023-04-02T14:08:58.868Z,98833.13
2023-04-02T14:12:01.195Z,98838.28
2023-04-02T14:15:01.222Z,98839.22
2023-04-02T14:17:53.850Z,98837.63
2023-04-02T14:20:26.001Z,98855.47
2023-04-02T14:23:27.182Z,98842.50
2023-04-02T14:26:13.384Z,98849.06
2023-04-02T14:28:57.373Z,98838.31
2023-04-02T14:31:37.307Z,98837.56
2023-04-02T14:34:04.001Z,98847.03
2023-04-02T14:36:58.639Z,98859.16
2023-04-02T14:39:28.555Z,98871.59
2023-04-02T14:41:59.222Z,98871.63
2023-04-02T14:44:29.297Z,98870.44
2023-04-02T14:47:02.145Z,98876.19
2023-04-02T14:49:39.587Z,98884.91
2023-04-02T14:52:14.493Z,98893.03
2023-04-02T14:54:51.737Z,98891.81
2023-04-02T14:57:37.814Z,98901.16
2023-04-02T15:00:28.136Z,98907.00
2023-04-02T15:03:22.025Z,98907.88
2023-04-02T15:05:54.237Z,98909.78
2023-04-02T15:08:27.285Z,98911.28
2023-04-02T15:11:08.701Z,98906.28
2023-04-02T15:13:48.423Z,98907.03
2023-04-02T15:16:19.430Z,98900.53
2023-04-02T15:18:49.176Z,98898.94
2023-04-02T15:21:19.022Z,98902.59
2023-04-02T15:23:54.997Z,98901.75
2023-04-02T15:26:29.700Z,98906.22
2023-04-02T15:29:15.769Z,98898.22
2023-04-02T15:31:46.892Z,98893.94
2023-04-02T15:34:27.562Z,98892.31
2023-04-02T15:37:23.720Z,98886.66
2023-04-02T15:40:07.027Z,98883.22
2023-04-02T15:42:43.211Z,98893.16
2023-04-02T15:45:17.464Z,98884.53
2023-04-02T15:48:32.201Z,98888.91
2023-04-02T15:51:09.375Z,98884.44
2023-04-02T15:53:48.201Z,98884.47
2023-04-02T15:56:24.550Z,98880.38
2023-04-02T15:59:12.070Z,98888.38
2023-04-02T16:02:07.289Z,98895.19
2023-04-02T16:05:10.744Z,98892.19
2023-04-02T16:07:37.452Z,98895.97
2023-04-02T16:10:16.545Z,98907.28
2023-04-02T16:12:44.795Z,98906.47
2023-04-02T16:15:18.045Z,98904.88
2023-04-02T16:17:56.620Z,98913.53
2023-04-02T16:20:27.370Z,98917.63
2023-04-02T16:23:01.145Z,98912.25
2023-04-02T16:25:32.368Z,98914.44
2023-04-02T16:28:03.909Z,98915.13
2023-04-02T16:30:30.563Z,98921.09
2023-04-02T16:33:23.222Z,98921.03
2023-04-02T16:35:56.853Z,98919.44
2023-04-02T16:38:58.897Z,98926.13
2023-04-02T16:41:36.223Z,98926.84
2023-04-02T16:44:02.908Z,98928.63
2023-04-02T16:47:01.875Z,98937.13
2023-04-02T16:49:46.298Z,98938.47
2023-04-02T16:52:28.044Z,98944.63
2023-04-02T16:55:12.601Z,98940.28
2023-04-02T16:58:00.604Z,98947.63
2023-04-02T17:00:56.207Z,98957.13
2023-04-02T17:03:41.841Z,98961.13
2023-04-02T17:06:19.665Z,98960.94
2023-04-02T17:08:54.382Z,98967.50
2023-04-02T17:11:25.027Z,98960.19
2023-04-02T17:14:06.149Z,98970.47
2023-04-02T17:16:44.676Z,98968.34
2023-04-02T17:19:13.809Z,98973.72
2023-04-02T17:21:43.428Z,98987.09
2023-04-02T17:24:19.394Z,98980.81
2023-04-02T17:26:48.836Z,98990.09
2023-04-02T17:29:20.441Z,98980.88
2023-04-02T17:31:47.619Z,98989.41
2023-04-02T17:34:16.871Z,98985.84
2023-04-02T17:37:21.069Z,98997.63
2023-04-02T17:40:08.383Z,99002.41
2023-04-02T17:42:52.695Z,99003.28
2023-04-02T17:46:11.124Z,99002.97
2023-04-02T17:48:47.551Z,99015.13
2023-04-02T17:51:36.881Z,99012.13
2023-04-02T17:54:22.081Z,99019.66
2023-04-02T17:57:19.269Z,99013.59
2023-04-02T18:00:14.690Z,99027.66
2023-04-02T18:03:12.366Z,99037.53
2023-04-02T18:05:45.453Z,99040.66
2023-04-02T18:08:33.424Z,99042.00
2023-04-02T18:11:21.728Z,99042.03
2023-04-02T18:13:50.872Z,99052.78
2023-04-02T18:16:38.212Z,99063.19
2023-04-02T18:19:16.276Z,99064.19
2023-04-02T18:21:51.468Z,99072.72
2023-04-02T18:24:33.583Z,99072.72
2023-04-02T18:27:13.556Z,99083.31
2023-04-02T18:30:05.166Z,99091.72
2023-04-02T18:32:48.841Z,99103.13
2023-04-02T18:35:27.553Z,99102.50
2023-04-02T18:38:11.894Z,99115.84
2023-04-02T18:40:41.927Z,99121.09
2023-04-02T18:43:12.576Z,99127.78
2023-04-02T18:46:00.811Z,99127.00
2023-04-02T18:48:56.781Z,99138.16
2023-04-02T18:51:30.133Z,99148.88
2023-04-02T18:54:14.610Z,99151.91
2023-04-02T18:56:41.598Z,99164.53
2023-04-02T18:59:29.102Z,99162.78
2023-04-02T19:01:58.089Z,99174.66
2023-04-02T19:04:31.013Z,99172.81
2023-04-02T19:07:03.757Z,99170.06
2023-04-02T19:09:33.171Z,99179.25
2023-04-02T19:12:00.395Z,99186.13
2023-04-02T19:14:27.199Z,99180.97
2023-04-02T19:16:59.883Z,99188.81
2023-04-02T19:19:38.116Z,99197.41
2023-04-02T19:22:23.558Z,99198.53
2023-04-02T19:25:17.903Z,99197.84
2023-04-02T19:28:03.434Z,99201.13
2023-04-02T19:30:50.063Z,99209.28
2023-04-02T19:33:25.965Z,99211.78
2023-04-02T19:35:58.752Z,99202.38
2023-04-02T19:38:59.793Z,99217.34
2023-04-02T19:41:34.833Z,99218.09
2023-04-02T19:44:01.889Z,99225.53
2023-04-02T19:46:28.779Z,99222.34
2023-04-02T19:49:22.936Z,99219.53
2023-04-02T19:51:50.178Z,99230.13
2023-04-02T19:54:16.858Z,99226.75
2023-04-02T19:56:43.948Z,99242.91
2023-04-02T19:59:18.019Z,99246.00
2023-04-02T20:01:46.464Z,99245.03
2023-04-02T20:04:13.707Z,99246.88
2023-04-02T20:06:40.750Z,99253.03
2023-04-02T20:09:08.640Z,99252.38
2023-04-02T20:11:36.977Z,99262.22
2023-04-02T20:14:04.368Z,99260.84
2023-04-02T20:16:31.395Z,99269.94
2023-04-02T20:18:58.209Z,99267.63
2023-04-02T20:21:25.051Z,99272.44
2023-04-02T20:23:55.445Z,99279.38
2023-04-02T20:26:22.798Z,99282.44
2023-04-02T20:28:49.631Z,99281.06
2023-04-02T20:31:18.212Z,99284.91
2023-04-02T20:33:45.574Z,99288.41
2023-04-02T20:36:14.714Z,99286.88
2023-04-02T20:38:41.828Z,99289.06
2023-04-02T20:41:09.219Z,99291.22
2023-04-02T20:43:36.384Z,99293.84
2023-04-02T20:46:05.662Z,99300.63
2023-04-02T20:48:35.609Z,99297.34
2023-04-02T20:51:04.964Z,99306.34
2023-04-02T20:53:47.745Z,99310.47
2023-04-02T20:56:16.162Z,99313.56
2023-04-02T20:58:43.519Z,99316.19
2023-04-02T21:01:16.176Z,99324.81
2023-04-02T21:03:43.702Z,99320.84
2023-04-02T21:06:18.332Z,99325.31
2023-04-02T21:08:45.358Z,99327.78
2023-04-02T21:11:12.380Z,99341.22
2023-04-02T21:13:41.813Z,99338.34
2023-04-02T21:16:20.206Z,99344.72
2023-04-02T21:18:49.270Z,99347.63
2023-04-02T21:21:16.780Z,99353.47
2023-04-02T21:23:44.966Z,99361.78
2023-04-02T21:26:14.709Z,99360.88
2023-04-02T21:28:42.170Z,99362.09
2023-04-02T21:31:14.492Z,99368.13
2023-04-02T21:33:44.058Z,99366.88
2023-04-02T21:36:12.968Z,99361.84
2023-04-02T21:38:47.736Z,99366.63
2023-04-02T21:41:18.424Z,99367.25
2023-04-02T21:43:48.461Z,99365.13
2023-04-02T21:46:26.235Z,99367.28
2023-04-02T21:48:54.570Z,99375.94
2023-04-02T21:51:23.588Z,99366.53
2023-04-02T21:53:50.798Z,99381.34
2023-04-02T21:56:23.302Z,99376.88
2023-04-02T21:58:51.398Z,99382.75
2023-04-02T22:01:26.508Z,99384.59
2023-04-02T22:03:58.190Z,99387.22
2023-04-02T22:06:26.290Z,99391.53
2023-04-02T22:08:58.604Z,99385.22
2023-04-02T22:11:28.644Z,99387.84
2023-04-02T22:13:55.587Z,99381.97
2023-04-02T22:16:25.246Z,99384.16
2023-04-02T22:18:52.969Z,99395.53
2023-04-02T22:21:19.955Z,99387.84
2023-04-02T22:23:46.866Z,99387.84
2023-04-02T22:26:15.820Z,99391.25
2023-04-02T22:28:42.868Z,99391.78
2023-04-02T22:31:16.083Z,99396.09
2023-04-02T22:33:44.012Z,99402.28
2023-04-02T22:36:11.955Z,99398.13
2023-04-02T22:38:38.779Z,99408.00
2023-04-02T22:41:15.717Z,99403.22
2023-04-02T22:43:46.555Z,99408.16
2023-04-02T22:46:15.843Z,99418.03
2023-04-02T22:48:43.269Z,99412.03
2023-04-02T22:51:11.886Z,99412.81
2023-04-02T22:53:39.242Z,99418.81
2023-04-02T22:56:14.613Z,99423.88
2023-04-02T22:58:41.843Z,99425.75
2023-04-02T23:01:12.196Z,99420.94
2023-04-02T23:03:39.065Z,99428.81
2023-04-02T23:06:08.537Z,99428.34
2023-04-02T23:08:36.263Z,99428.97
2023-04-02T23:11:05.804Z,99438.50
2023-04-02T23:13:33.260Z,99431.91
2023-04-02T23:16:05.567Z,99434.50
2023-04-02T23:18:36.126Z,99429.56
2023-04-02T23:21:03.528Z,99436.06
2023-04-02T23:23:31.542Z,99440.03
2023-04-02T23:26:09.094Z,99439.88
2023-04-02T23:28:36.715Z,99440.97
2023-04-02T23:31:05.365Z,99443.13
2023-04-02T23:33:32.429Z,99436.34
2023-04-02T23:35:59.291Z,99434.97
2023-04-02T23:38:26.613Z,99441.88
2023-04-02T23:40:53.704Z,99438.97
2023-04-02T23:43:20.402Z,99441.59
2023-04-02T23:45:48.901Z,99444.19
2023-04-02T23:48:16.014Z,99444.50
2023-04-02T23:50:44.873Z,99447.72
2023-04-02T23:53:12.083Z,99452.19
2023-04-02T23:55:39.368Z,99441.72
2023-04-02T23:58:06.271Z,99442.97
